< < Back
Terminal Aerodrome Forecast


Current Version              Previous Versions:   1  2  3  4  5  6  7  8  9  

Terminal Aerodrome Forecast

003
FTUS42 KFFC 190500 RRA
TAFFTY
TAF
KFTY 190543Z 1906/2006 06003KT P6SM BKN200
     FM191100 07004KT 6SM BR BKN008
     FM191400 08005KT P6SM BKN015
     FM191600 10008KT P6SM SCT045
     FM200100 08005KT P6SM FEW060=



Latest METAR

205
SAUS70 KWBC 191400 RRC
MTRFTY
METAR KFTY 191353Z 05006KT 10SM FEW031 23/19 A3009 RMK AO2 SLP180
T02330189


USA.gov is the U.S. government's official web portal to all federal, state and local government web resources and services.